sensor_id;sensor_type;location;lat;lon;timestamp;temperature;humidity
40556;DHT22;26250;45.422;11.100;2022-12-07T07:58:38;6.40;95.90
40556;DHT22;26250;45.422;11.100;2022-12-07T08:01:07;6.50;95.80
40556;DHT22;26250;45.422;11.100;2022-12-07T08:03:34;6.50;95.60
40556;DHT22;26250;45.422;11.100;2022-12-07T08:06:02;6.50;96.10
40556;DHT22;26250;45.422;11.100;2022-12-07T08:08:29;6.50;96.20
40556;DHT22;26250;45.422;11.100;2022-12-07T08:10:57;6.60;95.70
40556;DHT22;26250;45.422;11.100;2022-12-07T08:13:27;6.70;96.30
40556;DHT22;26250;45.422;11.100;2022-12-07T08:15:57;6.80;95.90
40556;DHT22;26250;45.422;11.100;2022-12-07T08:18:25;6.50;96.20
40556;DHT22;26250;45.422;11.100;2022-12-07T08:20:51;6.30;96.80
40556;DHT22;26250;45.422;11.100;2022-12-07T08:23:18;6.40;97.10
40556;DHT22;26250;45.422;11.100;2022-12-07T12:10:47;10.90;94.70
40556;DHT22;26250;45.422;11.100;2022-12-07T12:16:33;10.60;95.00
40556;DHT22;26250;45.422;11.100;2022-12-07T12:22:18;10.60;95.00
40556;DHT22;26250;45.422;11.100;2022-12-07T12:24:50;10.60;94.60
40556;DHT22;26250;45.422;11.100;2022-12-07T12:27:29;10.60;94.30
40556;DHT22;26250;45.422;11.100;2022-12-07T12:30:03;10.70;93.90
40556;DHT22;26250;45.422;11.100;2022-12-07T12:37:52;10.70;93.10
40556;DHT22;26250;45.422;11.100;2022-12-07T12:42:55;10.80;93.10
40556;DHT22;26250;45.422;11.100;2022-12-07T12:45:32;10.80;93.30
40556;DHT22;26250;45.422;11.100;2022-12-07T12:50:36;10.80;93.50
40556;DHT22;26250;45.422;11.100;2022-12-07T12:53:24;10.90;93.80
40556;DHT22;26250;45.422;11.100;2022-12-07T12:56:00;10.90;93.80
40556;DHT22;26250;45.422;11.100;2022-12-07T12:58:34;10.90;93.90
40556;DHT22;26250;45.422;11.100;2022-12-07T13:04:03;10.90;94.00
40556;DHT22;26250;45.422;11.100;2022-12-07T13:06:41;11.00;94.00
40556;DHT22;26250;45.422;11.100;2022-12-07T13:09:29;11.00;94.10
40556;DHT22;26250;45.422;11.100;2022-12-07T13:12:02;10.90;94.10
40556;DHT22;26250;45.422;11.100;2022-12-07T13:17:54;10.90;94.30
40556;DHT22;26250;45.422;11.100;2022-12-07T13:20:01;10.90;94.20
40556;DHT22;26250;45.422;11.100;2022-12-07T13:28:10;11.00;94.00
40556;DHT22;26250;45.422;11.100;2022-12-07T13:30:58;11.10;95.70
40556;DHT22;26250;45.422;11.100;2022-12-07T13:33:27;11.40;97.10
40556;DHT22;26250;45.422;11.100;2022-12-07T13:35:55;11.70;97.30
40556;DHT22;26250;45.422;11.100;2022-12-07T13:38:32;11.40;95.70
40556;DHT22;26250;45.422;11.100;2022-12-07T13:41:17;11.70;98.50
40556;DHT22;26250;45.422;11.100;2022-12-07T13:44:00;12.10;99.90
40556;DHT22;26250;45.422;11.100;2022-12-07T13:49:26;12.50;97.50
40556;DHT22;26250;45.422;11.100;2022-12-07T13:51:54;12.50;96.40
40556;DHT22;26250;45.422;11.100;2022-12-07T13:54:22;12.50;96.30
40556;DHT22;26250;45.422;11.100;2022-12-07T13:56:51;12.50;98.70
40556;DHT22;26250;45.422;11.100;2022-12-07T13:59:24;12.60;97.50
40556;DHT22;26250;45.422;11.100;2022-12-07T14:01:53;12.60;97.60
40556;DHT22;26250;45.422;11.100;2022-12-07T14:06:59;12.80;98.60
40556;DHT22;26250;45.422;11.100;2022-12-07T14:09:29;12.90;99.90
40556;DHT22;26250;45.422;11.100;2022-12-07T14:12:00;12.90;99.70
40556;DHT22;26250;45.422;11.100;2022-12-07T14:14:32;12.90;97.80
40556;DHT22;26250;45.422;11.100;2022-12-07T14:17:15;12.80;95.10
40556;DHT22;26250;45.422;11.100;2022-12-07T14:20:00;12.40;93.50
40556;DHT22;26250;45.422;11.100;2022-12-07T14:22:36;12.10;93.30
40556;DHT22;26250;45.422;11.100;2022-12-07T14:28:09;11.70;93.70
40556;DHT22;26250;45.422;11.100;2022-12-07T14:30:51;11.70;95.20
40556;DHT22;26250;45.422;11.100;2022-12-07T14:33:18;11.70;95.50
40556;DHT22;26250;45.422;11.100;2022-12-07T14:35:45;11.60;94.30
40556;DHT22;26250;45.422;11.100;2022-12-07T14:38:12;11.60;95.00
40556;DHT22;26250;45.422;11.100;2022-12-07T14:40:39;11.60;95.40
40556;DHT22;26250;45.422;11.100;2022-12-07T14:43:11;11.60;94.90
40556;DHT22;26250;45.422;11.100;2022-12-07T14:45:38;11.60;95.50
40556;DHT22;26250;45.422;11.100;2022-12-07T14:48:07;11.40;96.00
40556;DHT22;26250;45.422;11.100;2022-12-07T14:50:57;11.30;95.60
40556;DHT22;26250;45.422;11.100;2022-12-07T14:53:48;11.30;96.70
40556;DHT22;26250;45.422;11.100;2022-12-07T14:56:23;11.20;95.80
40556;DHT22;26250;45.422;11.100;2022-12-07T14:58:50;11.30;98.70
40556;DHT22;26250;45.422;11.100;2022-12-07T15:01:17;11.50;99.30
40556;DHT22;26250;45.422;11.100;2022-12-07T15:03:44;11.80;99.90
40556;DHT22;26250;45.422;11.100;2022-12-07T15:06:15;11.90;99.00
40556;DHT22;26250;45.422;11.100;2022-12-07T15:08:45;11.80;96.90
40556;DHT22;26250;45.422;11.100;2022-12-07T15:11:17;11.60;95.30
40556;DHT22;26250;45.422;11.100;2022-12-07T15:13:47;11.30;96.80
40556;DHT22;26250;45.422;11.100;2022-12-07T15:16:33;11.30;97.00
40556;DHT22;26250;45.422;11.100;2022-12-07T15:19:23;11.20;96.70
40556;DHT22;26250;45.422;11.100;2022-12-07T15:21:55;11.20;98.20
40556;DHT22;26250;45.422;11.100;2022-12-07T15:24:22;11.10;96.10
40556;DHT22;26250;45.422;11.100;2022-12-07T15:26:50;11.10;97.20
40556;DHT22;26250;45.422;11.100;2022-12-07T15:29:18;11.10;98.50
40556;DHT22;26250;45.422;11.100;2022-12-07T15:31:50;11.10;96.90
40556;DHT22;26250;45.422;11.100;2022-12-07T15:34:27;11.00;97.20
40556;DHT22;26250;45.422;11.100;2022-12-07T15:37:04;11.00;97.10
40556;DHT22;26250;45.422;11.100;2022-12-07T15:39:31;10.80;96.20
40556;DHT22;26250;45.422;11.100;2022-12-07T15:41:58;10.80;96.30
40556;DHT22;26250;45.422;11.100;2022-12-07T15:44:25;10.50;96.40
40556;DHT22;26250;45.422;11.100;2022-12-07T15:47:13;10.60;97.60
40556;DHT22;26250;45.422;11.100;2022-12-07T15:49:40;10.60;99.90
40556;DHT22;26250;45.422;11.100;2022-12-07T15:52:07;10.50;96.30
40556;DHT22;26250;45.422;11.100;2022-12-07T15:54:34;10.40;96.80
40556;DHT22;26250;45.422;11.100;2022-12-07T15:57:01;10.30;97.60
40556;DHT22;26250;45.422;11.100;2022-12-07T15:59:29;10.40;96.10
40556;DHT22;26250;45.422;11.100;2022-12-07T16:01:56;10.20;95.50
40556;DHT22;26250;45.422;11.100;2022-12-07T16:04:23;10.00;95.90
40556;DHT22;26250;45.422;11.100;2022-12-07T16:06:50;9.80;96.30
40556;DHT22;26250;45.422;11.100;2022-12-07T16:09:18;9.60;96.80
40556;DHT22;26250;45.422;11.100;2022-12-07T16:11:45;9.60;96.30
40556;DHT22;26250;45.422;11.100;2022-12-07T16:14:13;9.50;96.30
40556;DHT22;26250;45.422;11.100;2022-12-07T16:16:40;9.50;96.50
40556;DHT22;26250;45.422;11.100;2022-12-07T16:19:08;9.60;96.30
40556;DHT22;26250;45.422;11.100;2022-12-07T16:21:35;9.60;96.00
40556;DHT22;26250;45.422;11.100;2022-12-07T16:24:03;9.70;95.90
40556;DHT22;26250;45.422;11.100;2022-12-07T16:26:30;9.60;95.60
40556;DHT22;26250;45.422;11.100;2022-12-07T16:28:57;9.60;95.50
40556;DHT22;26250;45.422;11.100;2022-12-07T16:31:26;9.50;96.50
40556;DHT22;26250;45.422;11.100;2022-12-07T16:33:56;9.20;96.40
40556;DHT22;26250;45.422;11.100;2022-12-07T16:36:23;9.20;96.20
40556;DHT22;26250;45.422;11.100;2022-12-07T16:39:12;9.30;96.10
40556;DHT22;26250;45.422;11.100;2022-12-07T16:41:39;9.30;95.80
40556;DHT22;26250;45.422;11.100;2022-12-07T16:44:07;9.40;95.70
40556;DHT22;26250;45.422;11.100;2022-12-07T16:46:36;9.40;95.50
40556;DHT22;26250;45.422;11.100;2022-12-07T16:49:04;9.30;95.60
40556;DHT22;26250;45.422;11.100;2022-12-07T16:51:31;9.50;95.20
40556;DHT22;26250;45.422;11.100;2022-12-07T16:53:58;9.50;95.60
40556;DHT22;26250;45.422;11.100;2022-12-07T16:56:25;9.40;95.40
40556;DHT22;26250;45.422;11.100;2022-12-07T16:58:53;9.30;95.30
40556;DHT22;26250;45.422;11.100;2022-12-07T17:01:22;9.30;95.10
40556;DHT22;26250;45.422;11.100;2022-12-07T17:03:55;9.00;95.60
40556;DHT22;26250;45.422;11.100;2022-12-07T17:06:25;8.90;99.70
40556;DHT22;26250;45.422;11.100;2022-12-07T17:08:52;9.10;95.70
40556;DHT22;26250;45.422;11.100;2022-12-07T17:11:21;8.80;95.20
40556;DHT22;26250;45.422;11.100;2022-12-07T17:13:49;8.70;95.50
40556;DHT22;26250;45.422;11.100;2022-12-07T17:16:35;8.80;95.60
40556;DHT22;26250;45.422;11.100;2022-12-07T17:19:07;8.80;95.50
40556;DHT22;26250;45.422;11.100;2022-12-07T17:21:35;8.80;95.80
40556;DHT22;26250;45.422;11.100;2022-12-07T17:24:05;8.70;96.00
40556;DHT22;26250;45.422;11.100;2022-12-07T17:26:35;8.50;96.00
40556;DHT22;26250;45.422;11.100;2022-12-07T17:29:04;8.60;96.00
40556;DHT22;26250;45.422;11.100;2022-12-07T17:31:31;8.80;95.30
40556;DHT22;26250;45.422;11.100;2022-12-07T17:34:01;8.70;95.10
40556;DHT22;26250;45.422;11.100;2022-12-07T17:36:30;8.70;94.90
40556;DHT22;26250;45.422;11.100;2022-12-07T17:38:57;8.80;94.50
40556;DHT22;26250;45.422;11.100;2022-12-07T17:41:26;8.90;94.50
40556;DHT22;26250;45.422;11.100;2022-12-07T17:44:16;8.90;94.30
40556;DHT22;26250;45.422;11.100;2022-12-07T17:46:46;8.90;94.60
40556;DHT22;26250;45.422;11.100;2022-12-07T17:49:13;8.90;95.20
40556;DHT22;26250;45.422;11.100;2022-12-07T17:51:41;8.90;94.80
40556;DHT22;26250;45.422;11.100;2022-12-07T17:54:26;8.80;94.90
40556;DHT22;26250;45.422;11.100;2022-12-07T17:56:53;8.80;95.00
40556;DHT22;26250;45.422;11.100;2022-12-07T17:59:20;8.90;95.10
40556;DHT22;26250;45.422;11.100;2022-12-07T18:01:47;8.80;95.20
40556;DHT22;26250;45.422;11.100;2022-12-07T18:04:14;8.70;95.50
40556;DHT22;26250;45.422;11.100;2022-12-07T18:06:41;8.70;95.90
40556;DHT22;26250;45.422;11.100;2022-12-07T18:09:14;8.60;95.10
40556;DHT22;26250;45.422;11.100;2022-12-07T18:11:41;8.30;95.20
40556;DHT22;26250;45.422;11.100;2022-12-07T18:14:08;8.20;95.70
40556;DHT22;26250;45.422;11.100;2022-12-07T18:16:35;8.40;95.50
40556;DHT22;26250;45.422;11.100;2022-12-07T18:19:03;8.40;95.50
40556;DHT22;26250;45.422;11.100;2022-12-07T18:21:31;8.60;95.70
40556;DHT22;26250;45.422;11.100;2022-12-07T18:24:00;8.70;95.60
40556;DHT22;26250;45.422;11.100;2022-12-07T18:26:29;8.70;95.50
40556;DHT22;26250;45.422;11.100;2022-12-07T18:28:58;8.40;94.70
40556;DHT22;26250;45.422;11.100;2022-12-07T18:31:26;8.20;95.00
40556;DHT22;26250;45.422;11.100;2022-12-07T18:33:53;8.00;95.30
40556;DHT22;26250;45.422;11.100;2022-12-07T18:36:22;8.10;95.50
40556;DHT22;26250;45.422;11.100;2022-12-07T18:38:49;8.00;95.70
40556;DHT22;26250;45.422;11.100;2022-12-07T18:41:16;7.90;96.00
40556;DHT22;26250;45.422;11.100;2022-12-07T18:43:43;7.90;96.20
40556;DHT22;26250;45.422;11.100;2022-12-07T18:46:20;7.90;96.50
40556;DHT22;26250;45.422;11.100;2022-12-07T18:48:50;8.10;98.30
40556;DHT22;26250;45.422;11.100;2022-12-07T18:51:18;8.40;96.80
40556;DHT22;26250;45.422;11.100;2022-12-07T18:53:45;8.60;96.40
40556;DHT22;26250;45.422;11.100;2022-12-07T18:56:21;8.70;97.40
40556;DHT22;26250;45.422;11.100;2022-12-07T18:58:51;8.70;96.30
40556;DHT22;26250;45.422;11.100;2022-12-07T19:01:38;8.70;96.40
40556;DHT22;26250;45.422;11.100;2022-12-07T19:04:06;8.70;96.80
40556;DHT22;26250;45.422;11.100;2022-12-07T19:06:33;8.70;96.30
40556;DHT22;26250;45.422;11.100;2022-12-07T19:09:01;8.80;96.30
40556;DHT22;26250;45.422;11.100;2022-12-07T19:11:30;8.80;96.30
40556;DHT22;26250;45.422;11.100;2022-12-07T19:14:33;8.80;96.40
40556;DHT22;26250;45.422;11.100;2022-12-07T19:17:05;8.70;96.80
40556;DHT22;26250;45.422;11.100;2022-12-07T19:19:38;8.60;97.10
40556;DHT22;26250;45.422;11.100;2022-12-07T19:22:08;8.70;97.20
40556;DHT22;26250;45.422;11.100;2022-12-07T19:24:35;8.80;97.10
40556;DHT22;26250;45.422;11.100;2022-12-07T19:27:04;8.70;97.40
40556;DHT22;26250;45.422;11.100;2022-12-07T19:29:31;8.70;96.80
40556;DHT22;26250;45.422;11.100;2022-12-07T19:32:01;8.60;96.90
40556;DHT22;26250;45.422;11.100;2022-12-07T19:34:28;8.70;96.50
40556;DHT22;26250;45.422;11.100;2022-12-07T19:36:55;8.70;96.70
40556;DHT22;26250;45.422;11.100;2022-12-07T19:39:23;8.70;96.70
40556;DHT22;26250;45.422;11.100;2022-12-07T19:41:49;8.60;96.80
40556;DHT22;26250;45.422;11.100;2022-12-07T19:44:24;8.20;97.40
40556;DHT22;26250;45.422;11.100;2022-12-07T19:46:53;7.80;98.40
40556;DHT22;26250;45.422;11.100;2022-12-07T19:49:31;8.00;98.10
40556;DHT22;26250;45.422;11.100;2022-12-07T19:52:00;8.10;98.20
40556;DHT22;26250;45.422;11.100;2022-12-07T19:54:30;8.00;98.20
40556;DHT22;26250;45.422;11.100;2022-12-07T19:56:57;8.10;97.90
40556;DHT22;26250;45.422;11.100;2022-12-07T19:59:26;8.10;97.70
40556;DHT22;26250;45.422;11.100;2022-12-07T20:01:53;7.70;98.00
40556;DHT22;26250;45.422;11.100;2022-12-07T20:04:25;7.80;98.10
40556;DHT22;26250;45.422;11.100;2022-12-07T20:06:56;8.00;97.70
40556;DHT22;26250;45.422;11.100;2022-12-07T20:09:23;8.10;97.40
40556;DHT22;26250;45.422;11.100;2022-12-07T20:11:51;8.30;97.10
40556;DHT22;26250;45.422;11.100;2022-12-07T20:14:36;8.30;96.80
40556;DHT22;26250;45.422;11.100;2022-12-07T20:17:03;7.90;97.10
40556;DHT22;26250;45.422;11.100;2022-12-07T20:19:30;7.40;98.10
40556;DHT22;26250;45.422;11.100;2022-12-07T20:21:57;7.30;98.80
40556;DHT22;26250;45.422;11.100;2022-12-07T20:24:25;7.60;98.30
40556;DHT22;26250;45.422;11.100;2022-12-07T20:26:52;7.50;97.50
40556;DHT22;26250;45.422;11.100;2022-12-07T20:29:22;7.30;98.60
40556;DHT22;26250;45.422;11.100;2022-12-07T20:31:51;7.30;98.00
40556;DHT22;26250;45.422;11.100;2022-12-07T20:34:18;7.30;98.40
40556;DHT22;26250;45.422;11.100;2022-12-07T20:36:45;7.50;98.00
40556;DHT22;26250;45.422;11.100;2022-12-07T20:39:13;7.80;97.60
40556;DHT22;26250;45.422;11.100;2022-12-07T20:41:40;7.70;97.40
40556;DHT22;26250;45.422;11.100;2022-12-07T20:44:26;7.70;97.60
40556;DHT22;26250;45.422;11.100;2022-12-07T20:46:53;7.80;97.10
40556;DHT22;26250;45.422;11.100;2022-12-07T20:49:20;7.90;96.80
40556;DHT22;26250;45.422;11.100;2022-12-07T20:51:47;7.90;96.80
40556;DHT22;26250;45.422;11.100;2022-12-07T20:54:14;7.90;96.30
40556;DHT22;26250;45.422;11.100;2022-12-07T20:56:41;7.90;96.30
40556;DHT22;26250;45.422;11.100;2022-12-07T20:59:12;7.40;96.90
40556;DHT22;26250;45.422;11.100;2022-12-07T21:01:40;7.30;97.40
40556;DHT22;26250;45.422;11.100;2022-12-07T21:04:07;7.20;97.20
40556;DHT22;26250;45.422;11.100;2022-12-07T21:06:34;7.00;97.50
40556;DHT22;26250;45.422;11.100;2022-12-07T21:09:04;7.10;97.40
40556;DHT22;26250;45.422;11.100;2022-12-07T21:11:31;7.30;97.50
40556;DHT22;26250;45.422;11.100;2022-12-07T21:13:58;7.50;96.90
40556;DHT22;26250;45.422;11.100;2022-12-07T21:16:27;7.50;96.80
40556;DHT22;26250;45.422;11.100;2022-12-07T21:18:56;7.50;97.10
40556;DHT22;26250;45.422;11.100;2022-12-07T21:21:24;7.60;97.20
40556;DHT22;26250;45.422;11.100;2022-12-07T21:23:52;7.60;97.00
40556;DHT22;26250;45.422;11.100;2022-12-07T21:26:31;7.70;97.10
40556;DHT22;26250;45.422;11.100;2022-12-07T21:29:00;7.70;96.80
40556;DHT22;26250;45.422;11.100;2022-12-07T21:31:29;7.80;96.80
40556;DHT22;26250;45.422;11.100;2022-12-07T21:33:56;7.70;96.80
40556;DHT22;26250;45.422;11.100;2022-12-07T21:36:24;7.70;96.90
40556;DHT22;26250;45.422;11.100;2022-12-07T21:38:52;7.80;96.30
40556;DHT22;26250;45.422;11.100;2022-12-07T21:41:21;7.70;96.40
40556;DHT22;26250;45.422;11.100;2022-12-07T21:43:49;7.80;96.20
40556;DHT22;26250;45.422;11.100;2022-12-07T21:46:18;7.80;96.10
40556;DHT22;26250;45.422;11.100;2022-12-07T21:48:53;7.80;96.00
40556;DHT22;26250;45.422;11.100;2022-12-07T21:51:23;7.80;95.80
40556;DHT22;26250;45.422;11.100;2022-12-07T21:53:51;7.70;96.20
40556;DHT22;26250;45.422;11.100;2022-12-07T21:56:26;8.20;99.90
40556;DHT22;26250;45.422;11.100;2022-12-07T21:58:58;8.90;99.90
40556;DHT22;26250;45.422;11.100;2022-12-07T22:01:27;8.80;97.50
40556;DHT22;26250;45.422;11.100;2022-12-07T22:03:55;8.90;99.30
40556;DHT22;26250;45.422;11.100;2022-12-07T22:06:24;8.80;96.00
40556;DHT22;26250;45.422;11.100;2022-12-07T22:08:52;8.70;95.10
40556;DHT22;26250;45.422;11.100;2022-12-07T22:11:19;8.70;94.60
40556;DHT22;26250;45.422;11.100;2022-12-07T22:13:47;8.50;94.60
40556;DHT22;26250;45.422;11.100;2022-12-07T22:16:36;8.20;95.10
40556;DHT22;26250;45.422;11.100;2022-12-07T22:19:04;8.10;95.10
40556;DHT22;26250;45.422;11.100;2022-12-07T22:21:32;8.10;95.00
40556;DHT22;26250;45.422;11.100;2022-12-07T22:23:58;8.00;95.20
40556;DHT22;26250;45.422;11.100;2022-12-07T22:26:26;8.20;94.90
40556;DHT22;26250;45.422;11.100;2022-12-07T22:28:53;8.10;94.80
40556;DHT22;26250;45.422;11.100;2022-12-07T22:31:20;8.00;95.20
40556;DHT22;26250;45.422;11.100;2022-12-07T22:33:48;7.80;95.40
40556;DHT22;26250;45.422;11.100;2022-12-07T22:36:15;7.90;95.30
40556;DHT22;26250;45.422;11.100;2022-12-07T22:38:43;8.00;95.00
40556;DHT22;26250;45.422;11.100;2022-12-07T22:41:15;7.50;95.70
40556;DHT22;26250;45.422;11.100;2022-12-07T22:43:42;7.60;95.70
40556;DHT22;26250;45.422;11.100;2022-12-07T22:46:12;7.40;95.90
40556;DHT22;26250;45.422;11.100;2022-12-07T22:48:39;7.30;96.10
40556;DHT22;26250;45.422;11.100;2022-12-07T22:51:06;7.50;95.80
40556;DHT22;26250;45.422;11.100;2022-12-07T22:53:33;7.30;96.10
40556;DHT22;26250;45.422;11.100;2022-12-07T22:56:00;7.10;96.50
40556;DHT22;26250;45.422;11.100;2022-12-07T22:58:27;7.30;96.30
40556;DHT22;26250;45.422;11.100;2022-12-07T23:00:54;7.50;96.00
40556;DHT22;26250;45.422;11.100;2022-12-07T23:03:21;7.50;95.60
40556;DHT22;26250;45.422;11.100;2022-12-07T23:05:49;7.30;96.10
40556;DHT22;26250;45.422;11.100;2022-12-07T23:08:16;7.50;95.80
40556;DHT22;26250;45.422;11.100;2022-12-07T23:10:45;7.70;95.40
40556;DHT22;26250;45.422;11.100;2022-12-07T23:13:15;7.80;95.00
40556;DHT22;26250;45.422;11.100;2022-12-07T23:16:11;7.80;94.80
40556;DHT22;26250;45.422;11.100;2022-12-07T23:18:39;8.00;94.40
40556;DHT22;26250;45.422;11.100;2022-12-07T23:21:07;7.90;94.60
40556;DHT22;26250;45.422;11.100;2022-12-07T23:23:34;7.90;94.70
40556;DHT22;26250;45.422;11.100;2022-12-07T23:26:06;7.40;95.40
40556;DHT22;26250;45.422;11.100;2022-12-07T23:28:34;7.40;95.50
40556;DHT22;26250;45.422;11.100;2022-12-07T23:31:11;7.50;95.30
40556;DHT22;26250;45.422;11.100;2022-12-07T23:33:39;7.50;95.30
40556;DHT22;26250;45.422;11.100;2022-12-07T23:36:14;7.60;95.30
